Latest Coastal Weather Observations for Barrow Island

IDW60701

Issued at 7:45 pm WST Tuesday 30 September 2014 (issued every 10 minutes, with the page automatically refreshed every 10 minutes)

About coastal observations | Map of coastal stations | Coastal observations for WA | Marine services | Other Formats
Station Details ID: 005094 Name: BARROW ISLAND AIRPORT Lat: -20.88 Lon: 115.41 Height: 6.4 m
Data from the previous 72 hours. | See also: Recent months at Barrow Island
Date/Time
WST
Temp

°C
Wind Pressure Rain
since 9am
mm
Weather Cloud Vis
km
Sea
Height
m
Swell
Dir
 
Speed
knots
Gust
knots
hPa Trend Height
m
Period
s
Dir
30/07:30pm 22.8 WSW 9 11 1014.2 - 0.0 - - - - - - -
30/07:00pm 23.2 WSW 11 13 1013.8 - 0.0 - - - - - - -
30/06:30pm 23.5 WSW 11 13 1013.3 - 0.0 - - - - - - -
30/06:00pm 24.2 WSW 12 13 1013.0 - 0.0 - - - - - - -
30/05:30pm 24.8 WSW 13 16 1012.8 - 0.0 - - - - - - -
30/05:00pm 25.4 WSW 13 16 1012.6 - 0.0 - - - - - - -
30/04:30pm 26.1 WSW 12 15 1012.4 - 0.0 - - - - - - -
30/04:00pm 26.6 WSW 11 14 1012.3 - 0.0 - - - - - - -
30/03:30pm 26.5 SW 12 15 1012.2 - 0.0 - - - - - - -
30/03:00pm 26.2 SW 12 14 1012.4 - 0.0 - - - - - - -
30/02:30pm 26.8 SW 13 15 1012.3 - 0.0 - - - - - - -
30/02:00pm 27.6 SW 12 16 1012.4 - 0.0 - - - - - - -
30/01:30pm 26.2 SW 12 15 1012.7 - 0.0 - - - - - - -
30/01:00pm 25.7 SW 13 15 1013.2 - 0.0 - - - - - - -
30/12:30pm 25.4 SSW 14 16 1013.7 - 0.0 - - - - - - -
30/12:00pm 25.0 SSW 13 15 1014.1 - 0.0 - - - - - - -
30/11:30am 25.2 SSW 14 16 1014.6 - 0.0 - - - - - - -
30/11:00am 25.0 SSW 14 17 1014.9 - 0.0 - - - - - - -
30/10:30am 24.8 SSW 13 15 1015.1 - 0.0 - - - - - - -
30/10:00am 24.9 SSW 10 12 1015.1 - 0.0 - - - - - - -
30/09:30am 23.9 SSW 10 12 1015.1 - 0.0 - - - - - - -
30/09:00am 23.7 SSW 10 13 1015.0 - 0.0 - - - - - - -
30/08:30am 23.4 SSW 11 12 1015.0 - 0.0 - - - - - - -
30/08:00am 22.6 SSW 9 11 1014.9 - 0.0 - - - - - - -
30/07:30am 22.3 SSW 11 13 1014.7 - 0.0 - - - - - - -
30/07:00am 21.8 S 11 13 1014.5 - 0.0 - - - - - - -
30/06:30am 21.5 SSW 10 11 1014.4 - 0.0 - - - - - - -
30/06:00am 21.2 SSW 11 14 1014.2 - 0.0 - - - - - - -
30/05:30am 21.4 S 14 16 1013.7 - 0.0 - - - - - - -
30/05:00am 21.8 S 14 17 1013.6 - 0.0 - - - - - - -
30/04:30am 21.7 SSW 14 16 1013.5 - 0.0 - - - - - - -
30/04:00am 21.8 SSW 13 16 1013.5 - 0.0 - - - - - - -
30/03:30am 21.9 SSW 14 17 1013.4 - 0.0 - - - - - - -
30/03:00am 21.9 SSW 15 17 1013.2 - 0.0 - - - - - - -
30/02:30am 22.0 SSW 17 19 1013.3 - 0.0 - - - - - - -
30/02:00am 22.0 SSW 16 18 1013.6 - 0.0 - - - - - - -
30/01:30am 22.0 SSW 17 20 1013.6 - 0.0 - - - - - - -
30/01:00am 22.3 SSW 18 21 1013.6 - 0.0 - - - - - - -
30/12:30am 22.4 SSW 19 22 1013.7 - 0.0 - - - - - - -
30/12:00am 22.6 SSW 18 21 1014.0 - 0.0 - - - - - - -
 
Date/Time
WST
Temp

°C
Wind Pressure Rain
since 9am
mm
Weather Cloud Vis
km
Sea
Height
m
Swell
Dir
 
Speed
knots
Gust
knots
hPa Trend Height
m
Period
s
Dir
29/11:30pm 22.5 SW 15 18 1014.1 - 0.0 - - - - - - -
29/11:00pm 22.0 SW 11 13 1014.4 - 0.0 - - - - - - -
29/10:30pm 22.1 SW 11 13 1014.7 - 0.0 - - - - - - -
29/10:00pm 22.3 SW 12 15 1015.0 - 0.0 - - - - - - -
29/09:30pm 22.2 WSW 11 13 1015.0 - 0.0 - - - - - - -
29/09:00pm 22.3 WSW 10 13 1015.2 - 0.0 - - - - - - -
29/08:30pm 22.6 WSW 10 13 1015.1 - 0.0 - - - - - - -
29/08:00pm 22.8 SW 15 17 1014.5 - 0.0 - - - - - - -
29/07:30pm 22.7 SW 14 17 1014.3 - 0.0 - - - - - - -
29/07:00pm 22.9 WSW 13 16 1014.2 - 0.0 - - - - - - -
29/06:30pm 23.0 SW 14 17 1013.8 - 0.0 - - - - - - -
29/06:00pm 23.4 SW 14 17 1013.6 - 0.0 - - - - - - -
29/05:30pm 24.1 SW 17 21 1013.3 - 0.0 - - - - - - -
29/05:00pm 24.5 SW 18 22 1013.3 - 0.0 - - - - - - -
29/04:30pm 25.0 SW 19 21 1013.1 - 0.0 - - - - - - -
29/04:00pm 25.1 SW 18 22 1013.0 - 0.0 - - - - - - -
29/03:30pm 24.9 SW 19 21 1013.1 - 0.0 - - - - - - -
29/03:00pm 25.6 SW 17 20 1013.4 - 0.0 - - - - - - -
29/02:30pm 25.5 SW 17 19 1013.4 - 0.0 - - - - - - -
29/02:00pm 25.6 SW 16 19 1013.7 - 0.0 - - - - - - -
29/01:30pm 25.5 SW 15 18 1014.0 - 0.0 - - - - - - -
29/01:00pm 25.3 SSW 16 19 1014.3 - 0.0 - - - - - - -
29/12:30pm 24.6 SSW 19 21 1014.3 - 0.0 - - - - - - -
29/12:00pm 24.7 SSW 20 23 1014.6 - 0.0 - - - - - - -
29/11:30am 24.6 SSW 19 23 1014.8 - 0.0 - - - - - - -
29/11:00am 24.2 SSW 21 24 1015.0 - 0.0 - - - - - - -
29/10:30am 24.3 SSW 19 22 1015.7 - 0.0 - - - - - - -
29/10:00am 23.6 SSW 19 21 1015.8 - 0.0 - - - - - - -
29/09:30am 23.4 SSW 18 20 1015.9 - 0.0 - - - - - - -
29/09:00am 23.0 SSW 18 21 1016.0 - 0.0 - - - - - - -
29/08:30am 22.7 SSW 19 22 1015.7 - 0.0 - - - - - - -
29/08:00am 22.3 SSW 18 21 1015.4 - 0.0 - - - - - - -
29/07:30am 22.2 SSW 20 23 1015.2 - 0.0 - - - - - - -
29/07:00am 22.1 SSW 20 23 1014.9 - 0.0 - - - - - - -
29/06:30am 21.8 SSW 21 24 1014.4 - 0.0 - - - - - - -
29/06:00am 21.8 SSW 21 25 1014.1 - 0.0 - - - - - - -
29/05:30am 21.8 SSW 22 27 1013.9 - 0.0 - - - - - - -
29/05:00am 21.9 SSW 22 27 1013.6 - 0.0 - - - - - - -
29/04:30am 22.0 SSW 23 28 1013.5 - 0.0 - - - - - - -
29/04:00am 22.1 SSW 22 26 1013.5 - 0.0 - - - - - - -
29/03:30am 22.3 SSW 20 23 1013.6 - 0.0 - - - - - - -
29/03:00am 22.4 SSW 18 22 1013.7 - 0.0 - - - - - - -
29/02:30am 22.4 SSW 18 21 1013.9 - 0.0 - - - - - - -
29/02:00am 22.6 SSW 18 22 1013.9 - 0.0 - - - - - - -
29/01:30am 22.7 SSW 17 20 1014.1 - 0.0 - - - - - - -
29/01:00am 22.8 SSW 19 22 1014.1 - 0.0 - - - - - - -
29/12:30am 22.8 SSW 19 21 1014.4 - 0.0 - - - - - - -
29/12:00am 22.9 SSW 17 20 1014.6 - 0.0 - - - - - - -
 
Date/Time
WST
Temp

°C
Wind Pressure Rain
since 9am
mm
Weather Cloud Vis
km
Sea
Height
m
Swell
Dir
 
Speed
knots
Gust
knots
hPa Trend Height
m
Period
s
Dir
28/11:30pm 23.1 SW 15 18 1014.8 - 0.0 - - - - - - -
28/11:00pm 22.6 SW 14 16 1015.1 - 0.0 - - - - - - -
28/10:30pm 22.1 WSW 13 16 1015.3 - 0.0 - - - - - - -
28/10:00pm 22.3 WSW 13 16 1015.4 - 0.0 - - - - - - -
28/09:30pm 22.3 WSW 14 17 1015.4 - 0.0 - - - - - - -
28/09:00pm 22.4 WSW 12 15 1015.5 - 0.0 - - - - - - -
28/08:30pm 22.5 WSW 12 15 1015.2 - 0.0 - - - - - - -
28/08:00pm 22.5 WSW 11 15 1015.0 - 0.0 - - - - - - -
28/07:30pm 22.7 WSW 11 14 1014.8 - 0.0 - - - - - - -
28/07:00pm 22.9 WSW 12 16 1014.5 - 0.0 - - - - - - -
28/06:30pm 23.2 WSW 13 16 1014.3 - 0.0 - - - - - - -
28/06:00pm 23.6 WSW 14 16 1014.0 - 0.0 - - - - - - -
28/05:30pm 24.4 WSW 14 17 1013.8 - 0.0 - - - - - - -
28/05:00pm 25.0 WSW 14 16 1013.7 - 0.0 - - - - - - -
28/04:30pm 25.7 W 13 17 1013.7 - 0.0 - - - - - - -
28/04:00pm 26.3 WSW 12 15 1013.8 - 0.0 - - - - - - -
28/03:30pm 26.5 WSW 12 15 1013.9 - 0.0 - - - - - - -
28/03:00pm 26.6 SW 12 15 1014.0 - 0.0 - - - - - - -
28/02:30pm 26.9 SW 12 15 1014.1 - 0.0 - - - - - - -
28/02:00pm 26.6 SW 11 13 1014.3 - 0.0 - - - - - - -
28/01:30pm 26.4 SSW 10 12 1014.6 - 0.0 - - - - - - -
28/01:00pm 26.0 SSW 11 13 1014.8 - 0.0 - - - - - - -
28/12:30pm 25.5 SSW 11 13 1015.4 - 0.0 - - - - - - -
28/12:00pm 25.6 S 11 13 1015.8 - 0.0 - - - - - - -
28/11:30am 25.2 S 12 15 1016.3 - 0.0 - - - - - - -
28/11:00am 25.2 S 13 16 1016.6 - 0.0 - - - - - - -
28/10:30am 24.1 S 14 17 1016.8 - 0.0 - - - - - - -
28/10:00am 24.0 S 15 18 1016.9 - 0.0 - - - - - - -
28/09:30am 24.0 S 16 18 1017.3 - 0.0 - - - - - - -
28/09:00am 23.1 S 18 20 1017.2 - 0.0 - - - - - - -
28/08:30am 22.6 S 17 19 1017.2 - 0.0 - - - - - - -
28/08:00am 22.0 S 18 20 1017.0 - 0.0 - - - - - - -
28/07:30am 21.8 S 17 20 1016.8 - 0.0 - - - - - - -
28/07:00am 21.5 S 18 20 1016.6 - 0.0 - - - - - - -
28/06:30am 21.2 S 17 20 1016.2 - 0.0 - - - - - - -
28/06:00am 21.4 S 21 23 1015.5 - 0.0 - - - - - - -
28/05:30am 21.5 S 20 23 1015.5 - 0.0 - - - - - - -
28/05:00am 21.7 S 19 21 1015.4 - 0.0 - - - - - - -
28/04:30am 22.0 S 18 20 1015.3 - 0.0 - - - - - - -
28/04:00am 22.2 S 18 22 1015.1 - 0.0 - - - - - - -
28/03:30am 22.4 S 18 20 1014.9 - 0.0 - - - - - - -
28/03:00am 22.3 S 15 19 1015.1 - 0.0 - - - - - - -
28/02:30am 22.5 S 15 17 1015.3 - 0.0 - - - - - - -
28/02:00am 22.5 SSW 17 19 1015.5 - 0.0 - - - - - - -
28/01:30am 22.5 SSW 20 23 1015.6 - 0.0 - - - - - - -
28/01:00am 22.9 SSW 20 23 1015.8 - 0.0 - - - - - - -
28/12:30am 22.9 SSW 19 22 1016.0 - 0.0 - - - - - - -
28/12:00am 22.9 SW 20 24 1016.1 - 0.0 - - - - - - -
 
Date/Time
WST
Temp

°C
Wind Pressure Rain
since 9am
mm
Weather Cloud Vis
km
Sea
Height
m
Swell
Dir
 
Speed
knots
Gust
knots
hPa Trend Height
m
Period
s
Dir
27/11:30pm 22.8 SW 18 23 1016.2 - 0.0 - - - - - - -
27/11:00pm 22.5 WSW 16 20 1016.3 - 0.0 - - - - - - -
27/10:30pm 22.3 WSW 15 19 1016.8 - 0.0 - - - - - - -
27/10:00pm 22.2 WSW 12 16 1017.0 - 0.0 - - - - - - -
27/09:30pm 22.4 WSW 14 17 1017.0 - 0.0 - - - - - - -
27/09:00pm 22.1 W 12 15 1016.8 - 0.0 - - - - - - -
27/08:30pm 21.8 W 11 13 1016.6 - 0.0 - - - - - - -
27/08:00pm 22.1 W 11 13 1016.3 - 0.0 - - - - - - -

Other Formats:

Comma delimited format used in spreadsheet applications
http://www.bom.gov.au/fwo/IDW60701/IDW60701.95304.axf

JavaScript Object Notation format (JSON) in row-major order
http://www.bom.gov.au/fwo/IDW60701/IDW60701.95304.json